sensor_id;sensor_type;location;lat;lon;timestamp;P1;durP1;ratioP1;P2;durP2;ratioP2
18378;SDS011;27025;51.986;5.984;2023-05-16T00:01:15;20.33;;;3.70;;
18378;SDS011;27025;51.986;5.984;2023-05-16T00:03:42;16.30;;;3.60;;
18378;SDS011;27025;51.986;5.984;2023-05-16T00:06:08;16.77;;;3.63;;
18378;SDS011;27025;51.986;5.984;2023-05-16T00:08:35;16.43;;;3.77;;
18378;SDS011;27025;51.986;5.984;2023-05-16T00:11:01;15.10;;;3.87;;
18378;SDS011;27025;51.986;5.984;2023-05-16T00:13:28;14.37;;;3.77;;
18378;SDS011;27025;51.986;5.984;2023-05-16T00:15:54;15.40;;;3.70;;
18378;SDS011;27025;51.986;5.984;2023-05-16T00:18:21;16.30;;;3.63;;
18378;SDS011;27025;51.986;5.984;2023-05-16T00:20:48;12.83;;;3.30;;
18378;SDS011;27025;51.986;5.984;2023-05-16T00:23:15;16.40;;;3.23;;
18378;SDS011;27025;51.986;5.984;2023-05-16T00:25:41;15.83;;;3.47;;
18378;SDS011;27025;51.986;5.984;2023-05-16T00:28:08;17.07;;;3.87;;
18378;SDS011;27025;51.986;5.984;2023-05-16T00:30:34;12.20;;;3.07;;
18378;SDS011;27025;51.986;5.984;2023-05-16T00:33:00;22.17;;;3.60;;
18378;SDS011;27025;51.986;5.984;2023-05-16T00:35:26;16.67;;;3.40;;
18378;SDS011;27025;51.986;5.984;2023-05-16T00:37:52;16.87;;;3.97;;
18378;SDS011;27025;51.986;5.984;2023-05-16T00:40:18;16.97;;;3.57;;
18378;SDS011;27025;51.986;5.984;2023-05-16T00:42:45;16.67;;;4.00;;
18378;SDS011;27025;51.986;5.984;2023-05-16T00:45:11;15.02;;;3.88;;
18378;SDS011;27025;51.986;5.984;2023-05-16T00:47:37;18.90;;;3.97;;
18378;SDS011;27025;51.986;5.984;2023-05-16T00:50:03;17.55;;;4.35;;
18378;SDS011;27025;51.986;5.984;2023-05-16T00:52:30;15.25;;;4.00;;
18378;SDS011;27025;51.986;5.984;2023-05-16T00:54:57;13.05;;;3.72;;
18378;SDS011;27025;51.986;5.984;2023-05-16T00:57:23;17.20;;;3.97;;
18378;SDS011;27025;51.986;5.984;2023-05-16T00:59:50;15.25;;;3.85;;
18378;SDS011;27025;51.986;5.984;2023-05-16T01:02:16;18.67;;;4.07;;
18378;SDS011;27025;51.986;5.984;2023-05-16T01:04:42;19.80;;;4.20;;
18378;SDS011;27025;51.986;5.984;2023-05-16T01:07:08;17.92;;;4.03;;
18378;SDS011;27025;51.986;5.984;2023-05-16T01:09:34;13.93;;;3.77;;
18378;SDS011;27025;51.986;5.984;2023-05-16T01:12:03;15.02;;;4.03;;
18378;SDS011;27025;51.986;5.984;2023-05-16T01:20:16;15.95;;;3.85;;
18378;SDS011;27025;51.986;5.984;2023-05-16T01:27:36;14.02;;;3.85;;
18378;SDS011;27025;51.986;5.984;2023-05-16T01:30:12;14.43;;;3.70;;
18378;SDS011;27025;51.986;5.984;2023-05-16T01:32:40;16.20;;;4.03;;
18378;SDS011;27025;51.986;5.984;2023-05-16T01:35:06;16.98;;;3.78;;
18378;SDS011;27025;51.986;5.984;2023-05-16T01:37:38;18.95;;;3.53;;
18378;SDS011;27025;51.986;5.984;2023-05-16T01:42:32;14.63;;;3.63;;
18378;SDS011;27025;51.986;5.984;2023-05-16T01:45:13;15.73;;;3.90;;
18378;SDS011;27025;51.986;5.984;2023-05-16T01:47:44;16.23;;;3.60;;
18378;SDS011;27025;51.986;5.984;2023-05-16T01:50:14;14.27;;;3.20;;
18378;SDS011;27025;51.986;5.984;2023-05-16T01:52:45;16.55;;;3.55;;
18378;SDS011;27025;51.986;5.984;2023-05-16T01:55:15;17.08;;;3.70;;
18378;SDS011;27025;51.986;5.984;2023-05-16T01:57:43;12.82;;;3.22;;
18378;SDS011;27025;51.986;5.984;2023-05-16T02:00:10;14.15;;;3.80;;
18378;SDS011;27025;51.986;5.984;2023-05-16T02:02:37;15.97;;;3.50;;
18378;SDS011;27025;51.986;5.984;2023-05-16T02:05:03;15.63;;;3.65;;
18378;SDS011;27025;51.986;5.984;2023-05-16T02:07:29;16.88;;;3.25;;
18378;SDS011;27025;51.986;5.984;2023-05-16T02:09:55;18.85;;;3.47;;
18378;SDS011;27025;51.986;5.984;2023-05-16T02:12:21;14.40;;;3.50;;
18378;SDS011;27025;51.986;5.984;2023-05-16T02:14:47;15.57;;;3.50;;
18378;SDS011;27025;51.986;5.984;2023-05-16T02:17:13;13.20;;;3.45;;
18378;SDS011;27025;51.986;5.984;2023-05-16T02:19:39;15.98;;;3.50;;
18378;SDS011;27025;51.986;5.984;2023-05-16T02:22:05;13.57;;;2.97;;
18378;SDS011;27025;51.986;5.984;2023-05-16T02:24:31;14.03;;;3.10;;
18378;SDS011;27025;51.986;5.984;2023-05-16T02:26:57;15.20;;;2.90;;
18378;SDS011;27025;51.986;5.984;2023-05-16T02:29:23;13.27;;;2.77;;
18378;SDS011;27025;51.986;5.984;2023-05-16T02:31:49;16.17;;;3.23;;
18378;SDS011;27025;51.986;5.984;2023-05-16T02:34:15;14.90;;;3.20;;
18378;SDS011;27025;51.986;5.984;2023-05-16T02:36:41;16.07;;;3.70;;
18378;SDS011;27025;51.986;5.984;2023-05-16T02:39:08;16.33;;;3.65;;
18378;SDS011;27025;51.986;5.984;2023-05-16T02:41:34;14.27;;;3.53;;
18378;SDS011;27025;51.986;5.984;2023-05-16T02:44:00;15.30;;;3.45;;
18378;SDS011;27025;51.986;5.984;2023-05-16T02:46:28;14.00;;;3.60;;
18378;SDS011;27025;51.986;5.984;2023-05-16T02:48:57;17.15;;;3.53;;
18378;SDS011;27025;51.986;5.984;2023-05-16T02:51:24;18.05;;;3.85;;
18378;SDS011;27025;51.986;5.984;2023-05-16T02:53:50;18.95;;;3.50;;
18378;SDS011;27025;51.986;5.984;2023-05-16T02:56:17;18.13;;;3.75;;
18378;SDS011;27025;51.986;5.984;2023-05-16T02:58:45;16.13;;;3.60;;
18378;SDS011;27025;51.986;5.984;2023-05-16T03:01:12;14.43;;;3.45;;
18378;SDS011;27025;51.986;5.984;2023-05-16T03:03:38;16.60;;;3.33;;
18378;SDS011;27025;51.986;5.984;2023-05-16T03:06:04;16.70;;;3.53;;
18378;SDS011;27025;51.986;5.984;2023-05-16T03:08:30;14.43;;;3.55;;
18378;SDS011;27025;51.986;5.984;2023-05-16T03:10:56;18.13;;;3.60;;
18378;SDS011;27025;51.986;5.984;2023-05-16T03:13:22;19.33;;;3.63;;
18378;SDS011;27025;51.986;5.984;2023-05-16T03:15:48;17.95;;;4.10;;
18378;SDS011;27025;51.986;5.984;2023-05-16T03:18:14;17.00;;;3.67;;
18378;SDS011;27025;51.986;5.984;2023-05-16T03:20:41;14.82;;;3.88;;
18378;SDS011;27025;51.986;5.984;2023-05-16T03:23:07;17.63;;;3.60;;
18378;SDS011;27025;51.986;5.984;2023-05-16T03:25:33;20.08;;;4.10;;
18378;SDS011;27025;51.986;5.984;2023-05-16T03:28:00;15.18;;;3.67;;
18378;SDS011;27025;51.986;5.984;2023-05-16T03:30:26;14.50;;;3.75;;
18378;SDS011;27025;51.986;5.984;2023-05-16T03:32:52;15.60;;;3.70;;
18378;SDS011;27025;51.986;5.984;2023-05-16T03:35:18;18.88;;;3.72;;
18378;SDS011;27025;51.986;5.984;2023-05-16T03:37:44;14.95;;;3.42;;
18378;SDS011;27025;51.986;5.984;2023-05-16T03:40:10;14.07;;;3.33;;
18378;SDS011;27025;51.986;5.984;2023-05-16T03:42:36;13.47;;;2.90;;
18378;SDS011;27025;51.986;5.984;2023-05-16T03:45:06;15.20;;;3.63;;
18378;SDS011;27025;51.986;5.984;2023-05-16T03:47:32;17.23;;;4.00;;
18378;SDS011;27025;51.986;5.984;2023-05-16T03:49:58;15.77;;;3.67;;
18378;SDS011;27025;51.986;5.984;2023-05-16T03:52:24;16.23;;;3.38;;
18378;SDS011;27025;51.986;5.984;2023-05-16T03:54:50;13.87;;;3.20;;
18378;SDS011;27025;51.986;5.984;2023-05-16T03:57:16;14.37;;;2.93;;
18378;SDS011;27025;51.986;5.984;2023-05-16T03:59:42;15.43;;;3.13;;
18378;SDS011;27025;51.986;5.984;2023-05-16T04:02:08;16.92;;;4.00;;
18378;SDS011;27025;51.986;5.984;2023-05-16T04:04:35;14.50;;;3.47;;
18378;SDS011;27025;51.986;5.984;2023-05-16T04:07:01;15.85;;;3.60;;
18378;SDS011;27025;51.986;5.984;2023-05-16T04:09:27;15.95;;;3.50;;
18378;SDS011;27025;51.986;5.984;2023-05-16T04:11:53;12.27;;;3.33;;
18378;SDS011;27025;51.986;5.984;2023-05-16T04:14:23;16.77;;;3.40;;
18378;SDS011;27025;51.986;5.984;2023-05-16T04:16:49;13.38;;;3.20;;
18378;SDS011;27025;51.986;5.984;2023-05-16T04:19:15;15.33;;;3.43;;
18378;SDS011;27025;51.986;5.984;2023-05-16T04:21:41;15.87;;;3.93;;
18378;SDS011;27025;51.986;5.984;2023-05-16T04:24:07;16.10;;;3.72;;
18378;SDS011;27025;51.986;5.984;2023-05-16T04:26:33;16.40;;;3.20;;
18378;SDS011;27025;51.986;5.984;2023-05-16T04:28:59;11.80;;;3.13;;
18378;SDS011;27025;51.986;5.984;2023-05-16T04:31:25;16.43;;;3.20;;
18378;SDS011;27025;51.986;5.984;2023-05-16T04:33:51;14.93;;;3.17;;
18378;SDS011;27025;51.986;5.984;2023-05-16T04:36:18;11.97;;;2.80;;
18378;SDS011;27025;51.986;5.984;2023-05-16T04:38:45;11.63;;;3.00;;
18378;SDS011;27025;51.986;5.984;2023-05-16T04:41:11;13.70;;;3.30;;
18378;SDS011;27025;51.986;5.984;2023-05-16T04:43:38;15.70;;;3.20;;
18378;SDS011;27025;51.986;5.984;2023-05-16T04:46:04;15.27;;;2.83;;
18378;SDS011;27025;51.986;5.984;2023-05-16T04:48:34;10.23;;;2.97;;
18378;SDS011;27025;51.986;5.984;2023-05-16T04:51:00;14.03;;;3.10;;
18378;SDS011;27025;51.986;5.984;2023-05-16T04:53:26;16.03;;;3.27;;
18378;SDS011;27025;51.986;5.984;2023-05-16T04:55:52;14.13;;;3.03;;
18378;SDS011;27025;51.986;5.984;2023-05-16T04:58:18;14.43;;;3.33;;
18378;SDS011;27025;51.986;5.984;2023-05-16T05:00:45;16.03;;;3.10;;
18378;SDS011;27025;51.986;5.984;2023-05-16T05:03:11;18.40;;;3.40;;
18378;SDS011;27025;51.986;5.984;2023-05-16T05:05:37;14.05;;;3.80;;
18378;SDS011;27025;51.986;5.984;2023-05-16T05:08:03;14.82;;;4.00;;
18378;SDS011;27025;51.986;5.984;2023-05-16T05:10:30;14.93;;;3.97;;
18378;SDS011;27025;51.986;5.984;2023-05-16T05:12:56;13.18;;;3.63;;
18378;SDS011;27025;51.986;5.984;2023-05-16T05:15:22;14.30;;;4.10;;
18378;SDS011;27025;51.986;5.984;2023-05-16T05:17:48;15.43;;;4.22;;
18378;SDS011;27025;51.986;5.984;2023-05-16T05:20:14;13.38;;;3.78;;
18378;SDS011;27025;51.986;5.984;2023-05-16T05:22:40;11.20;;;3.58;;
18378;SDS011;27025;51.986;5.984;2023-05-16T05:25:07;15.48;;;3.95;;
18378;SDS011;27025;51.986;5.984;2023-05-16T05:27:33;17.13;;;3.97;;
18378;SDS011;27025;51.986;5.984;2023-05-16T05:29:59;11.13;;;3.38;;
18378;SDS011;27025;51.986;5.984;2023-05-16T05:32:25;13.77;;;3.40;;
18378;SDS011;27025;51.986;5.984;2023-05-16T05:34:51;12.57;;;3.35;;
18378;SDS011;27025;51.986;5.984;2023-05-16T05:37:17;14.70;;;3.45;;
18378;SDS011;27025;51.986;5.984;2023-05-16T05:39:43;13.85;;;3.30;;
18378;SDS011;27025;51.986;5.984;2023-05-16T05:42:10;11.80;;;3.85;;
18378;SDS011;27025;51.986;5.984;2023-05-16T05:44:36;14.90;;;3.63;;
18378;SDS011;27025;51.986;5.984;2023-05-16T05:47:02;14.65;;;3.90;;
18378;SDS011;27025;51.986;5.984;2023-05-16T05:49:29;15.77;;;3.60;;
18378;SDS011;27025;51.986;5.984;2023-05-16T05:51:55;11.90;;;3.30;;
18378;SDS011;27025;51.986;5.984;2023-05-16T05:54:22;13.65;;;3.30;;
18378;SDS011;27025;51.986;5.984;2023-05-16T05:56:48;12.75;;;3.20;;
18378;SDS011;27025;51.986;5.984;2023-05-16T05:59:14;14.07;;;3.70;;
18378;SDS011;27025;51.986;5.984;2023-05-16T06:01:40;11.05;;;2.92;;
18378;SDS011;27025;51.986;5.984;2023-05-16T06:04:08;12.77;;;3.40;;
18378;SDS011;27025;51.986;5.984;2023-05-16T06:06:34;11.75;;;3.10;;
18378;SDS011;27025;51.986;5.984;2023-05-16T06:09:00;15.05;;;3.38;;
18378;SDS011;27025;51.986;5.984;2023-05-16T06:11:26;11.00;;;3.22;;
18378;SDS011;27025;51.986;5.984;2023-05-16T06:13:52;12.85;;;3.35;;
18378;SDS011;27025;51.986;5.984;2023-05-16T06:16:18;16.27;;;3.60;;
18378;SDS011;27025;51.986;5.984;2023-05-16T06:18:48;13.43;;;3.20;;
18378;SDS011;27025;51.986;5.984;2023-05-16T06:21:15;12.23;;;3.17;;
18378;SDS011;27025;51.986;5.984;2023-05-16T06:23:41;13.05;;;3.10;;
18378;SDS011;27025;51.986;5.984;2023-05-16T06:26:07;13.85;;;3.40;;
18378;SDS011;27025;51.986;5.984;2023-05-16T06:28:33;15.67;;;3.17;;
18378;SDS011;27025;51.986;5.984;2023-05-16T06:30:59;7.57;;;2.20;;
18378;SDS011;27025;51.986;5.984;2023-05-16T06:33:25;10.43;;;2.37;;
18378;SDS011;27025;51.986;5.984;2023-05-16T06:35:51;12.40;;;2.80;;
18378;SDS011;27025;51.986;5.984;2023-05-16T06:38:17;10.77;;;3.03;;
18378;SDS011;27025;51.986;5.984;2023-05-16T06:40:44;12.40;;;2.83;;
18378;SDS011;27025;51.986;5.984;2023-05-16T06:43:10;10.07;;;2.60;;
18378;SDS011;27025;51.986;5.984;2023-05-16T06:45:36;9.33;;;2.80;;
18378;SDS011;27025;51.986;5.984;2023-05-16T06:48:03;11.30;;;2.70;;
18378;SDS011;27025;51.986;5.984;2023-05-16T06:50:29;16.47;;;3.20;;
18378;SDS011;27025;51.986;5.984;2023-05-16T06:52:55;10.80;;;2.92;;
18378;SDS011;27025;51.986;5.984;2023-05-16T06:55:21;11.38;;;3.13;;
18378;SDS011;27025;51.986;5.984;2023-05-16T06:57:47;15.90;;;3.20;;
18378;SDS011;27025;51.986;5.984;2023-05-16T07:00:13;11.97;;;3.10;;
18378;SDS011;27025;51.986;5.984;2023-05-16T07:02:39;11.87;;;2.93;;
18378;SDS011;27025;51.986;5.984;2023-05-16T07:05:05;9.33;;;2.57;;
18378;SDS011;27025;51.986;5.984;2023-05-16T07:07:31;12.15;;;3.17;;
18378;SDS011;27025;51.986;5.984;2023-05-16T07:09:58;11.65;;;2.88;;
18378;SDS011;27025;51.986;5.984;2023-05-16T07:12:24;12.40;;;2.83;;
18378;SDS011;27025;51.986;5.984;2023-05-16T07:14:50;8.97;;;2.70;;
18378;SDS011;27025;51.986;5.984;2023-05-16T07:17:16;9.87;;;2.73;;
18378;SDS011;27025;51.986;5.984;2023-05-16T07:19:42;8.70;;;2.60;;
18378;SDS011;27025;51.986;5.984;2023-05-16T07:22:08;11.63;;;2.73;;
18378;SDS011;27025;51.986;5.984;2023-05-16T07:24:36;13.00;;;2.70;;
18378;SDS011;27025;51.986;5.984;2023-05-16T07:27:02;10.97;;;2.47;;
18378;SDS011;27025;51.986;5.984;2023-05-16T07:29:28;11.30;;;2.63;;
18378;SDS011;27025;51.986;5.984;2023-05-16T07:31:54;12.47;;;2.63;;
18378;SDS011;27025;51.986;5.984;2023-05-16T07:34:20;9.97;;;2.07;;
18378;SDS011;27025;51.986;5.984;2023-05-16T07:36:46;7.77;;;1.90;;
18378;SDS011;27025;51.986;5.984;2023-05-16T07:39:12;8.90;;;2.40;;
18378;SDS011;27025;51.986;5.984;2023-05-16T07:41:38;9.00;;;2.03;;
18378;SDS011;27025;51.986;5.984;2023-05-16T07:44:04;6.97;;;1.97;;
18378;SDS011;27025;51.986;5.984;2023-05-16T07:46:30;5.93;;;1.50;;
18378;SDS011;27025;51.986;5.984;2023-05-16T07:48:56;11.07;;;2.00;;
18378;SDS011;27025;51.986;5.984;2023-05-16T07:51:22;9.83;;;2.00;;
18378;SDS011;27025;51.986;5.984;2023-05-16T07:53:48;5.67;;;1.60;;
18378;SDS011;27025;51.986;5.984;2023-05-16T07:56:15;6.87;;;1.50;;
18378;SDS011;27025;51.986;5.984;2023-05-16T07:58:41;8.90;;;1.70;;
18378;SDS011;27025;51.986;5.984;2023-05-16T08:01:08;5.20;;;1.50;;
18378;SDS011;27025;51.986;5.984;2023-05-16T08:03:34;7.40;;;1.70;;
18378;SDS011;27025;51.986;5.984;2023-05-16T08:06:00;5.63;;;1.60;;
18378;SDS011;27025;51.986;5.984;2023-05-16T08:08:26;8.17;;;1.70;;
18378;SDS011;27025;51.986;5.984;2023-05-16T08:10:52;4.73;;;1.33;;
18378;SDS011;27025;51.986;5.984;2023-05-16T08:13:18;5.60;;;1.57;;
18378;SDS011;27025;51.986;5.984;2023-05-16T08:15:44;4.57;;;1.57;;
18378;SDS011;27025;51.986;5.984;2023-05-16T08:18:13;5.80;;;1.73;;
18378;SDS011;27025;51.986;5.984;2023-05-16T08:20:40;6.00;;;1.40;;
18378;SDS011;27025;51.986;5.984;2023-05-16T08:23:07;5.27;;;1.57;;
18378;SDS011;27025;51.986;5.984;2023-05-16T08:25:33;5.60;;;1.33;;
18378;SDS011;27025;51.986;5.984;2023-05-16T08:27:59;8.17;;;1.60;;
18378;SDS011;27025;51.986;5.984;2023-05-16T08:30:28;4.43;;;1.40;;
18378;SDS011;27025;51.986;5.984;2023-05-16T08:32:54;3.07;;;1.37;;
18378;SDS011;27025;51.986;5.984;2023-05-16T08:35:20;4.40;;;1.43;;
18378;SDS011;27025;51.986;5.984;2023-05-16T08:37:46;3.00;;;1.17;;
18378;SDS011;27025;51.986;5.984;2023-05-16T08:40:12;4.90;;;1.13;;
18378;SDS011;27025;51.986;5.984;2023-05-16T08:42:39;2.97;;;1.00;;
18378;SDS011;27025;51.986;5.984;2023-05-16T08:45:05;3.97;;;1.20;;
18378;SDS011;27025;51.986;5.984;2023-05-16T08:47:32;3.33;;;1.10;;
18378;SDS011;27025;51.986;5.984;2023-05-16T08:50:01;3.93;;;1.30;;
18378;SDS011;27025;51.986;5.984;2023-05-16T08:52:28;4.60;;;1.30;;
18378;SDS011;27025;51.986;5.984;2023-05-16T08:54:56;2.97;;;1.03;;
18378;SDS011;27025;51.986;5.984;2023-05-16T08:57:22;1.60;;;1.10;;
18378;SDS011;27025;51.986;5.984;2023-05-16T08:59:49;2.67;;;1.30;;
18378;SDS011;27025;51.986;5.984;2023-05-16T09:02:18;3.85;;;1.52;;
18378;SDS011;27025;51.986;5.984;2023-05-16T09:04:44;2.90;;;1.13;;
18378;SDS011;27025;51.986;5.984;2023-05-16T09:07:11;4.10;;;1.27;;
18378;SDS011;27025;51.986;5.984;2023-05-16T09:09:37;4.10;;;1.40;;
18378;SDS011;27025;51.986;5.984;2023-05-16T09:12:03;3.47;;;1.10;;
18378;SDS011;27025;51.986;5.984;2023-05-16T09:14:29;2.90;;;1.27;;
18378;SDS011;27025;51.986;5.984;2023-05-16T09:17:03;4.43;;;1.40;;
18378;SDS011;27025;51.986;5.984;2023-05-16T09:19:39;3.97;;;1.50;;
18378;SDS011;27025;51.986;5.984;2023-05-16T09:22:07;3.15;;;1.50;;
18378;SDS011;27025;51.986;5.984;2023-05-16T09:24:37;4.27;;;1.30;;
18378;SDS011;27025;51.986;5.984;2023-05-16T09:27:10;8.77;;;1.23;;
18378;SDS011;27025;51.986;5.984;2023-05-16T09:29:39;3.83;;;1.17;;
18378;SDS011;27025;51.986;5.984;2023-05-16T09:32:12;4.37;;;1.10;;
18378;SDS011;27025;51.986;5.984;2023-05-16T09:34:45;2.30;;;1.00;;
18378;SDS011;27025;51.986;5.984;2023-05-16T09:37:19;2.27;;;1.10;;
18378;SDS011;27025;51.986;5.984;2023-05-16T09:39:46;3.00;;;1.00;;
18378;SDS011;27025;51.986;5.984;2023-05-16T09:42:13;3.13;;;1.63;;
18378;SDS011;27025;51.986;5.984;2023-05-16T09:44:40;3.67;;;1.20;;
18378;SDS011;27025;51.986;5.984;2023-05-16T09:47:06;5.43;;;1.50;;
18378;SDS011;27025;51.986;5.984;2023-05-16T09:49:32;3.90;;;1.40;;
18378;SDS011;27025;51.986;5.984;2023-05-16T09:52:02;4.53;;;1.70;;
18378;SDS011;27025;51.986;5.984;2023-05-16T09:54:31;4.28;;;1.73;;
18378;SDS011;27025;51.986;5.984;2023-05-16T09:56:58;2.93;;;1.37;;
18378;SDS011;27025;51.986;5.984;2023-05-16T09:59:24;5.47;;;1.40;;
18378;SDS011;27025;51.986;5.984;2023-05-16T10:01:50;5.60;;;1.40;;
18378;SDS011;27025;51.986;5.984;2023-05-16T10:04:18;6.97;;;1.63;;
18378;SDS011;27025;51.986;5.984;2023-05-16T10:06:44;3.37;;;1.40;;
18378;SDS011;27025;51.986;5.984;2023-05-16T10:09:11;4.57;;;1.53;;
18378;SDS011;27025;51.986;5.984;2023-05-16T10:11:38;4.87;;;1.63;;
18378;SDS011;27025;51.986;5.984;2023-05-16T10:14:06;3.97;;;1.60;;
18378;SDS011;27025;51.986;5.984;2023-05-16T10:16:34;3.67;;;1.50;;
18378;SDS011;27025;51.986;5.984;2023-05-16T10:19:01;3.80;;;1.60;;
18378;SDS011;27025;51.986;5.984;2023-05-16T10:21:28;3.03;;;1.30;;
18378;SDS011;27025;51.986;5.984;2023-05-16T10:23:55;4.07;;;1.40;;
18378;SDS011;27025;51.986;5.984;2023-05-16T10:26:22;3.30;;;1.50;;
18378;SDS011;27025;51.986;5.984;2023-05-16T10:28:52;4.75;;;1.55;;
18378;SDS011;27025;51.986;5.984;2023-05-16T10:31:18;3.97;;;1.63;;
18378;SDS011;27025;51.986;5.984;2023-05-16T10:33:46;5.83;;;1.57;;
18378;SDS011;27025;51.986;5.984;2023-05-16T10:36:12;4.93;;;1.40;;
18378;SDS011;27025;51.986;5.984;2023-05-16T10:38:39;3.07;;;1.20;;
18378;SDS011;27025;51.986;5.984;2023-05-16T10:41:06;3.63;;;1.30;;
18378;SDS011;27025;51.986;5.984;2023-05-16T10:43:32;4.43;;;1.50;;
18378;SDS011;27025;51.986;5.984;2023-05-16T10:46:01;5.03;;;1.60;;
18378;SDS011;27025;51.986;5.984;2023-05-16T10:48:28;4.00;;;1.60;;
18378;SDS011;27025;51.986;5.984;2023-05-16T10:50:54;4.07;;;1.50;;
18378;SDS011;27025;51.986;5.984;2023-05-16T10:53:21;4.23;;;1.50;;
18378;SDS011;27025;51.986;5.984;2023-05-16T10:55:48;5.18;;;1.60;;
18378;SDS011;27025;51.986;5.984;2023-05-16T10:58:21;4.25;;;1.55;;
18378;SDS011;27025;51.986;5.984;2023-05-16T11:00:48;5.22;;;1.70;;
18378;SDS011;27025;51.986;5.984;2023-05-16T11:03:23;3.40;;;1.30;;
18378;SDS011;27025;51.986;5.984;2023-05-16T11:05:50;3.33;;;1.33;;
18378;SDS011;27025;51.986;5.984;2023-05-16T11:08:18;4.93;;;1.37;;
18378;SDS011;27025;51.986;5.984;2023-05-16T11:10:44;5.30;;;1.30;;
18378;SDS011;27025;51.986;5.984;2023-05-16T11:13:10;5.90;;;1.50;;
18378;SDS011;27025;51.986;5.984;2023-05-16T11:15:36;4.03;;;1.60;;
18378;SDS011;27025;51.986;5.984;2023-05-16T11:18:06;4.00;;;1.43;;
18378;SDS011;27025;51.986;5.984;2023-05-16T11:20:33;5.30;;;1.67;;
18378;SDS011;27025;51.986;5.984;2023-05-16T11:25:41;5.20;;;1.40;;
18378;SDS011;27025;51.986;5.984;2023-05-16T11:28:09;2.90;;;1.67;;
18378;SDS011;27025;51.986;5.984;2023-05-16T11:30:42;4.57;;;1.40;;
18378;SDS011;27025;51.986;5.984;2023-05-16T11:33:10;3.83;;;1.40;;
18378;SDS011;27025;51.986;5.984;2023-05-16T11:35:38;2.97;;;1.50;;
18378;SDS011;27025;51.986;5.984;2023-05-16T11:38:05;2.77;;;1.40;;
18378;SDS011;27025;51.986;5.984;2023-05-16T11:40:31;7.73;;;1.60;;
18378;SDS011;27025;51.986;5.984;2023-05-16T11:42:59;4.80;;;1.70;;
18378;SDS011;27025;51.986;5.984;2023-05-16T11:45:27;2.83;;;1.40;;
18378;SDS011;27025;51.986;5.984;2023-05-16T11:47:53;4.50;;;1.50;;
18378;SDS011;27025;51.986;5.984;2023-05-16T11:50:20;4.67;;;1.80;;
18378;SDS011;27025;51.986;5.984;2023-05-16T11:52:53;3.37;;;1.37;;
18378;SDS011;27025;51.986;5.984;2023-05-16T11:55:25;5.53;;;1.63;;
18378;SDS011;27025;51.986;5.984;2023-05-16T11:57:52;3.37;;;1.80;;
18378;SDS011;27025;51.986;5.984;2023-05-16T12:00:19;4.67;;;1.73;;
18378;SDS011;27025;51.986;5.984;2023-05-16T12:02:45;6.67;;;1.80;;
18378;SDS011;27025;51.986;5.984;2023-05-16T12:05:12;4.50;;;1.67;;
18378;SDS011;27025;51.986;5.984;2023-05-16T12:07:38;3.90;;;1.60;;
18378;SDS011;27025;51.986;5.984;2023-05-16T12:10:08;3.00;;;1.83;;
18378;SDS011;27025;51.986;5.984;2023-05-16T12:12:35;3.37;;;1.47;;
18378;SDS011;27025;51.986;5.984;2023-05-16T12:15:01;2.77;;;1.50;;
18378;SDS011;27025;51.986;5.984;2023-05-16T12:17:28;3.40;;;1.70;;
18378;SDS011;27025;51.986;5.984;2023-05-16T12:19:54;4.80;;;1.73;;
18378;SDS011;27025;51.986;5.984;2023-05-16T12:22:21;5.50;;;1.83;;
18378;SDS011;27025;51.986;5.984;2023-05-16T12:24:49;4.70;;;1.70;;
18378;SDS011;27025;51.986;5.984;2023-05-16T12:27:23;2.23;;;1.53;;
18378;SDS011;27025;51.986;5.984;2023-05-16T12:29:50;5.70;;;2.00;;
18378;SDS011;27025;51.986;5.984;2023-05-16T12:32:20;4.20;;;2.00;;
18378;SDS011;27025;51.986;5.984;2023-05-16T12:34:49;7.00;;;1.90;;
18378;SDS011;27025;51.986;5.984;2023-05-16T12:37:16;4.70;;;1.80;;
18378;SDS011;27025;51.986;5.984;2023-05-16T12:39:42;5.10;;;1.73;;
18378;SDS011;27025;51.986;5.984;2023-05-16T12:42:11;4.90;;;2.17;;
18378;SDS011;27025;51.986;5.984;2023-05-16T12:44:37;4.83;;;1.83;;
18378;SDS011;27025;51.986;5.984;2023-05-16T12:47:03;3.13;;;1.60;;
18378;SDS011;27025;51.986;5.984;2023-05-16T12:49:36;6.87;;;1.73;;
18378;SDS011;27025;51.986;5.984;2023-05-16T12:52:03;4.63;;;1.97;;
18378;SDS011;27025;51.986;5.984;2023-05-16T12:54:29;5.60;;;1.87;;
18378;SDS011;27025;51.986;5.984;2023-05-16T12:56:55;5.17;;;2.00;;
18378;SDS011;27025;51.986;5.984;2023-05-16T12:59:21;3.60;;;1.73;;
18378;SDS011;27025;51.986;5.984;2023-05-16T13:01:47;6.00;;;1.90;;
18378;SDS011;27025;51.986;5.984;2023-05-16T13:04:13;6.90;;;1.80;;
18378;SDS011;27025;51.986;5.984;2023-05-16T13:06:42;4.23;;;1.60;;
18378;SDS011;27025;51.986;5.984;2023-05-16T13:09:08;5.77;;;1.67;;
18378;SDS011;27025;51.986;5.984;2023-05-16T13:11:35;5.03;;;1.73;;
18378;SDS011;27025;51.986;5.984;2023-05-16T13:14:01;4.60;;;1.70;;
18378;SDS011;27025;51.986;5.984;2023-05-16T13:16:28;5.27;;;1.80;;
18378;SDS011;27025;51.986;5.984;2023-05-16T13:18:54;6.53;;;1.73;;
18378;SDS011;27025;51.986;5.984;2023-05-16T13:21:20;6.97;;;1.47;;
18378;SDS011;27025;51.986;5.984;2023-05-16T13:23:46;5.17;;;1.70;;
18378;SDS011;27025;51.986;5.984;2023-05-16T13:26:12;4.60;;;1.67;;
18378;SDS011;27025;51.986;5.984;2023-05-16T13:28:39;6.30;;;1.90;;
18378;SDS011;27025;51.986;5.984;2023-05-16T13:31:05;5.37;;;1.40;;
18378;SDS011;27025;51.986;5.984;2023-05-16T13:33:31;5.17;;;1.70;;
18378;SDS011;27025;51.986;5.984;2023-05-16T13:35:58;7.00;;;1.60;;
18378;SDS011;27025;51.986;5.984;2023-05-16T13:38:24;4.47;;;1.63;;
18378;SDS011;27025;51.986;5.984;2023-05-16T13:40:50;4.03;;;1.73;;
18378;SDS011;27025;51.986;5.984;2023-05-16T13:43:16;4.13;;;1.57;;
18378;SDS011;27025;51.986;5.984;2023-05-16T13:45:42;4.67;;;1.83;;
18378;SDS011;27025;51.986;5.984;2023-05-16T13:48:08;3.70;;;1.77;;
18378;SDS011;27025;51.986;5.984;2023-05-16T13:50:34;4.63;;;1.70;;
18378;SDS011;27025;51.986;5.984;2023-05-16T13:53:00;4.83;;;1.77;;
18378;SDS011;27025;51.986;5.984;2023-05-16T13:55:26;5.80;;;1.67;;
18378;SDS011;27025;51.986;5.984;2023-05-16T13:57:52;6.83;;;1.80;;
18378;SDS011;27025;51.986;5.984;2023-05-16T14:00:18;7.50;;;1.93;;
18378;SDS011;27025;51.986;5.984;2023-05-16T14:02:44;4.23;;;1.90;;
18378;SDS011;27025;51.986;5.984;2023-05-16T14:05:10;4.43;;;1.87;;
18378;SDS011;27025;51.986;5.984;2023-05-16T14:07:36;5.13;;;1.80;;
18378;SDS011;27025;51.986;5.984;2023-05-16T14:10:02;5.97;;;1.90;;
18378;SDS011;27025;51.986;5.984;2023-05-16T14:12:30;7.27;;;1.80;;
18378;SDS011;27025;51.986;5.984;2023-05-16T14:15:03;7.07;;;1.97;;
18378;SDS011;27025;51.986;5.984;2023-05-16T14:17:29;7.23;;;2.00;;
18378;SDS011;27025;51.986;5.984;2023-05-16T14:19:55;9.83;;;2.43;;
18378;SDS011;27025;51.986;5.984;2023-05-16T14:22:21;3.10;;;1.80;;
18378;SDS011;27025;51.986;5.984;2023-05-16T14:24:47;7.23;;;1.97;;
18378;SDS011;27025;51.986;5.984;2023-05-16T14:27:13;5.23;;;1.90;;
18378;SDS011;27025;51.986;5.984;2023-05-16T14:29:40;4.73;;;1.77;;
18378;SDS011;27025;51.986;5.984;2023-05-16T14:32:06;6.60;;;2.10;;
18378;SDS011;27025;51.986;5.984;2023-05-16T14:34:33;4.68;;;2.10;;
18378;SDS011;27025;51.986;5.984;2023-05-16T14:36:59;6.55;;;2.30;;
18378;SDS011;27025;51.986;5.984;2023-05-16T14:39:25;5.95;;;2.20;;
18378;SDS011;27025;51.986;5.984;2023-05-16T14:41:51;6.95;;;2.13;;
18378;SDS011;27025;51.986;5.984;2023-05-16T14:44:17;8.15;;;2.40;;
18378;SDS011;27025;51.986;5.984;2023-05-16T14:46:45;5.63;;;2.00;;
18378;SDS011;27025;51.986;5.984;2023-05-16T14:49:11;6.10;;;1.97;;
18378;SDS011;27025;51.986;5.984;2023-05-16T14:51:37;5.88;;;2.15;;
18378;SDS011;27025;51.986;5.984;2023-05-16T14:54:03;7.30;;;2.20;;